createdAt,value
2023-04-16T00:00:48.692Z,65.12
2023-04-16T00:03:32.174Z,63.22
2023-04-16T00:06:00.791Z,61.48
2023-04-16T00:08:28.832Z,58.54
2023-04-16T00:10:56.756Z,58.10
2023-04-16T00:13:26.178Z,60.35
2023-04-16T00:15:54.104Z,66.14
2023-04-16T00:18:22.156Z,67.91
2023-04-16T00:20:50.898Z,65.03
2023-04-16T00:23:19.138Z,62.23
2023-04-16T00:25:47.472Z,61.36
2023-04-16T00:28:15.398Z,60.59
2023-04-16T00:30:43.625Z,58.29
2023-04-16T00:33:12.025Z,57.76
2023-04-16T00:35:40.011Z,59.64
2023-04-16T00:38:08.502Z,64.84
2023-04-16T00:40:36.557Z,67.23
2023-04-16T00:43:04.642Z,64.76
2023-04-16T00:45:32.886Z,63.10
2023-04-16T00:48:01.261Z,61.37
2023-04-16T00:50:29.862Z,59.27
2023-04-16T00:52:58.329Z,58.64
2023-04-16T00:55:27.303Z,63.16
2023-04-16T00:57:55.348Z,66.65
2023-04-16T01:00:23.763Z,64.54
2023-04-16T01:02:52.398Z,63.56
2023-04-16T01:05:21.118Z,61.85
2023-04-16T01:07:49.044Z,60.92
2023-04-16T01:10:17.357Z,60.99
2023-04-16T01:12:45.732Z,60.90
2023-04-16T01:15:13.639Z,61.17
2023-04-16T01:17:46.200Z,61.36
2023-04-16T01:20:15.018Z,61.25
2023-04-16T01:22:42.986Z,60.64
2023-04-16T01:25:15.939Z,60.44
2023-04-16T01:27:43.996Z,60.55
2023-04-16T01:30:12.210Z,60.22
2023-04-16T01:32:49.533Z,58.44
2023-04-16T01:35:18.455Z,58.23
2023-04-16T01:37:46.705Z,59.57
2023-04-16T01:40:14.613Z,64.93
2023-04-16T01:42:42.582Z,68.13
2023-04-16T01:45:11.226Z,65.43
2023-04-16T01:47:39.237Z,64.13
2023-04-16T01:50:07.879Z,63.27
2023-04-16T01:52:35.971Z,62.59
2023-04-16T01:55:04.158Z,62.37
2023-04-16T01:57:32.080Z,61.22
2023-04-16T01:59:59.919Z,61.26
2023-04-16T02:02:29.520Z,61.65
2023-04-16T02:04:57.961Z,62.17
2023-04-16T02:07:26.100Z,62.15
2023-04-16T02:09:54.263Z,61.85
2023-04-16T02:12:22.160Z,62.17
2023-04-16T02:14:50.089Z,61.44
2023-04-16T02:17:19.351Z,61.44
2023-04-16T02:19:50.493Z,61.62
2023-04-16T02:22:18.828Z,61.31
2023-04-16T02:24:47.289Z,61.29
2023-04-16T02:27:16.238Z,60.98
2023-04-16T02:29:45.037Z,61.22
2023-04-16T02:32:15.851Z,61.04
2023-04-16T02:34:45.661Z,60.81
2023-04-16T02:37:15.449Z,61.07
2023-04-16T02:39:44.142Z,60.89
2023-04-16T02:42:38.699Z,59.45
2023-04-16T02:45:15.597Z,60.22
2023-04-16T02:47:43.555Z,63.84
2023-04-16T02:50:11.832Z,65.11
2023-04-16T02:52:39.890Z,63.82
2023-04-16T02:55:08.919Z,63.14
2023-04-16T02:57:36.890Z,62.19
2023-04-16T03:00:05.286Z,62.24
2023-04-16T03:02:33.583Z,62.19
2023-04-16T03:05:02.007Z,61.80
2023-04-16T03:07:30.325Z,61.23
2023-04-16T03:09:58.606Z,58.58
2023-04-16T03:12:26.497Z,58.83
2023-04-16T03:14:54.451Z,63.35
2023-04-16T03:17:22.372Z,66.24
2023-04-16T03:19:51.037Z,63.96
2023-04-16T03:22:20.853Z,62.62
2023-04-16T03:24:49.179Z,60.84
2023-04-16T03:27:17.066Z,60.15
2023-04-16T03:29:45.873Z,58.02
2023-04-16T03:32:14.671Z,59.57
2023-04-16T03:34:45.607Z,64.04
2023-04-16T03:37:13.494Z,65.41
2023-04-16T03:39:41.635Z,63.69
2023-04-16T03:42:11.901Z,62.66
2023-04-16T03:44:39.900Z,62.01
2023-04-16T03:47:07.833Z,60.72
2023-04-16T03:49:36.874Z,59.47
2023-04-16T03:52:05.112Z,59.73
2023-04-16T03:54:33.143Z,64.35
2023-04-16T03:57:10.434Z,65.46
2023-04-16T03:59:38.788Z,62.88
2023-04-16T04:02:07.415Z,62.27
2023-04-16T04:04:35.527Z,61.41
2023-04-16T04:07:04.342Z,60.75
2023-04-16T04:09:34.105Z,59.84
2023-04-16T04:12:04.555Z,58.01
2023-04-16T04:14:32.971Z,60.33
2023-04-16T04:17:00.982Z,66.40
2023-04-16T04:19:28.880Z,65.83
2023-04-16T04:21:56.778Z,60.86
2023-04-16T04:24:24.786Z,58.25
2023-04-16T04:26:52.784Z,60.80
2023-04-16T04:29:20.799Z,66.05
2023-04-16T04:31:48.759Z,66.47
2023-04-16T04:34:17.162Z,64.33
2023-04-16T04:36:45.721Z,63.81
2023-04-16T04:39:15.171Z,62.87
2023-04-16T04:41:44.065Z,62.87
2023-04-16T04:44:12.020Z,61.97
2023-04-16T04:46:40.948Z,59.98
2023-04-16T04:49:09.446Z,60.93
2023-04-16T04:51:38.101Z,61.06
2023-04-16T04:54:06.591Z,61.19
2023-04-16T04:56:34.658Z,60.20
2023-04-16T04:59:02.650Z,58.72
2023-04-16T05:01:30.673Z,61.32
2023-04-16T05:03:58.799Z,67.20
2023-04-16T05:06:29.561Z,66.68
2023-04-16T05:08:57.625Z,64.62
2023-04-16T05:11:25.593Z,63.41
2023-04-16T05:13:53.642Z,63.16
2023-04-16T05:16:21.576Z,61.27
2023-04-16T05:18:50.531Z,58.90
2023-04-16T05:21:18.490Z,61.15
2023-04-16T05:23:46.364Z,67.41
2023-04-16T05:26:14.327Z,66.34
2023-04-16T05:28:42.209Z,63.01
2023-04-16T05:31:10.345Z,62.26
2023-04-16T05:33:38.403Z,62.38
2023-04-16T05:36:06.573Z,62.40
2023-04-16T05:38:34.474Z,62.06
2023-04-16T05:41:02.403Z,62.15
2023-04-16T05:43:30.333Z,62.56
2023-04-16T05:45:58.286Z,62.72
2023-04-16T05:48:26.173Z,61.84
2023-04-16T05:50:54.104Z,61.42
2023-04-16T05:53:22.094Z,60.34
2023-04-16T05:55:50.057Z,60.03
2023-04-16T05:58:17.962Z,60.36
2023-04-16T06:00:45.924Z,60.12
2023-04-16T06:03:13.989Z,59.86
2023-04-16T06:05:42.051Z,58.70
2023-04-16T06:08:10.163Z,58.75
2023-04-16T06:10:38.108Z,61.52
2023-04-16T06:13:06.138Z,68.00
2023-04-16T06:15:34.095Z,67.98
2023-04-16T06:18:02.071Z,65.55
2023-04-16T06:20:30.763Z,64.03
2023-04-16T06:22:58.741Z,63.71
2023-04-16T06:25:26.679Z,62.80
2023-04-16T06:27:54.603Z,60.39
2023-04-16T06:30:22.605Z,60.05
2023-04-16T06:32:50.724Z,60.74
2023-04-16T06:35:20.385Z,60.80
2023-04-16T06:37:48.456Z,60.67
2023-04-16T06:40:16.704Z,60.70
2023-04-16T06:42:45.682Z,60.73
2023-04-16T06:45:14.062Z,61.45
2023-04-16T06:47:42.109Z,61.73
2023-04-16T06:50:10.662Z,59.66
2023-04-16T06:52:38.736Z,59.53
2023-04-16T06:55:09.909Z,63.21
2023-04-16T06:57:38.061Z,64.12
2023-04-16T07:00:06.902Z,62.76
2023-04-16T07:02:35.317Z,61.35
2023-04-16T07:05:03.821Z,60.81
2023-04-16T07:07:32.269Z,60.09
2023-04-16T07:10:00.442Z,58.81
2023-04-16T07:12:28.550Z,57.31
2023-04-16T07:14:56.773Z,60.63
2023-04-16T07:17:25.432Z,65.75
2023-04-16T07:19:54.228Z,65.85
2023-04-16T07:22:22.163Z,60.78
2023-04-16T07:24:50.353Z,57.75
2023-04-16T07:27:18.317Z,59.32
2023-04-16T07:29:46.727Z,63.71
2023-04-16T07:32:15.617Z,63.65
2023-04-16T07:34:43.920Z,60.19
2023-04-16T07:37:11.863Z,59.58
2023-04-16T07:39:40.258Z,58.05
2023-04-16T07:42:08.282Z,58.86
2023-04-16T07:44:36.448Z,60.38
2023-04-16T07:47:05.603Z,64.96
2023-04-16T07:49:34.258Z,64.14
2023-04-16T07:52:02.311Z,59.56
2023-04-16T07:54:30.276Z,56.91
2023-04-16T07:56:58.144Z,59.18
2023-04-16T07:59:26.396Z,60.14
2023-04-16T08:01:54.792Z,63.59
2023-04-16T08:04:25.702Z,61.98
2023-04-16T08:06:54.543Z,57.15
2023-04-16T08:09:24.177Z,57.26
2023-04-16T08:11:52.326Z,59.64
2023-04-16T08:14:20.570Z,64.13
2023-04-16T08:16:49.505Z,62.79
2023-04-16T08:19:17.572Z,59.01
2023-04-16T08:21:47.114Z,57.52
2023-04-16T08:24:15.155Z,57.58
2023-04-16T08:26:43.116Z,58.66
2023-04-16T08:29:11.347Z,61.39
2023-04-16T08:31:39.623Z,63.23
2023-04-16T08:34:07.720Z,61.51
2023-04-16T08:36:35.683Z,58.50
2023-04-16T08:39:03.962Z,56.69
2023-04-16T08:41:36.380Z,59.46
2023-04-16T08:44:09.449Z,61.73
2023-04-16T08:46:38.393Z,61.92
2023-04-16T08:49:08.321Z,58.13
2023-04-16T08:51:37.152Z,54.24
2023-04-16T08:54:09.233Z,56.66
2023-04-16T08:56:40.777Z,58.70
2023-04-16T08:59:10.126Z,59.72
2023-04-16T09:01:41.773Z,60.60
2023-04-16T09:04:10.134Z,63.69
2023-04-16T09:06:39.018Z,61.12
2023-04-16T09:09:09.139Z,56.14
2023-04-16T09:11:39.580Z,55.19
2023-04-16T09:14:11.307Z,58.03
2023-04-16T09:16:39.866Z,57.81
2023-04-16T09:19:08.132Z,57.00
2023-04-16T09:21:36.927Z,58.43
2023-04-16T09:24:05.526Z,56.99
2023-04-16T09:26:34.171Z,57.51
2023-04-16T09:29:02.902Z,58.99
2023-04-16T09:31:30.903Z,57.76
2023-04-16T09:34:09.278Z,57.35
2023-04-16T09:36:37.715Z,59.43
2023-04-16T09:39:06.548Z,58.39
2023-04-16T09:41:39.887Z,58.76
2023-04-16T09:44:08.307Z,58.43
2023-04-16T09:46:43.328Z,57.85
2023-04-16T09:49:17.685Z,57.38
2023-04-16T09:51:51.060Z,56.00
2023-04-16T09:54:24.197Z,56.79
2023-04-16T09:56:56.850Z,53.93
2023-04-16T09:59:25.709Z,53.62
2023-04-16T10:02:15.771Z,54.83
2023-04-16T10:04:48.560Z,54.63
2023-04-16T10:07:17.773Z,56.02
2023-04-16T10:09:50.189Z,56.14
2023-04-16T10:12:18.396Z,53.59
2023-04-16T10:14:48.302Z,51.46
2023-04-16T10:17:17.850Z,50.71
2023-04-16T10:19:46.805Z,49.12
2023-04-16T10:22:15.460Z,47.74
2023-04-16T10:24:44.225Z,48.12
2023-04-16T10:27:12.445Z,46.78
2023-04-16T10:29:41.592Z,47.94
2023-04-16T10:32:10.480Z,47.84
2023-04-16T10:34:39.466Z,48.97
2023-04-16T10:37:07.391Z,48.24
2023-04-16T10:39:37.678Z,46.60
2023-04-16T10:42:13.174Z,43.95
2023-04-16T10:44:44.337Z,45.72
2023-04-16T10:47:14.462Z,44.01
2023-04-16T10:49:44.085Z,44.32
2023-04-16T10:52:17.178Z,44.77
2023-04-16T10:54:48.022Z,46.72
2023-04-16T10:57:18.154Z,47.33
2023-04-16T10:59:48.890Z,47.59
2023-04-16T11:02:19.619Z,48.09
2023-04-16T11:04:49.313Z,48.23
2023-04-16T11:07:20.639Z,48.44
2023-04-16T11:09:54.688Z,48.51
2023-04-16T11:12:27.789Z,48.76
2023-04-16T11:15:03.388Z,48.84
2023-04-16T11:17:37.328Z,48.51
2023-04-16T11:20:19.062Z,48.89
2023-04-16T11:22:54.827Z,48.91
2023-04-16T11:25:30.355Z,48.83
2023-04-16T11:28:01.639Z,48.29
2023-04-16T11:30:37.590Z,47.73
2023-04-16T11:33:08.515Z,46.51
2023-04-16T11:35:37.311Z,46.86
2023-04-16T11:38:09.102Z,43.13
2023-04-16T11:40:37.130Z,44.42
2023-04-16T11:43:15.040Z,43.93
2023-04-16T11:46:10.319Z,41.47
2023-04-16T11:48:55.673Z,40.14
2023-04-16T11:51:24.078Z,41.23
2023-04-16T11:53:54.361Z,39.52
2023-04-16T11:56:29.994Z,38.56
2023-04-16T11:59:09.037Z,37.17
2023-04-16T12:01:39.283Z,38.78
2023-04-16T12:04:08.556Z,38.72
2023-04-16T12:06:37.119Z,40.17
2023-04-16T12:09:26.108Z,39.94
2023-04-16T12:11:54.306Z,40.28
2023-04-16T12:14:23.797Z,41.25
2023-04-16T12:16:51.874Z,42.04
2023-04-16T12:19:21.001Z,42.85
2023-04-16T12:21:50.113Z,43.27
2023-04-16T12:24:24.278Z,42.27
2023-04-16T12:26:57.503Z,41.89
2023-04-16T12:29:27.630Z,41.70
2023-04-16T12:31:55.968Z,41.45
2023-04-16T12:34:29.021Z,40.65
2023-04-16T12:37:13.019Z,41.19
2023-04-16T12:39:41.497Z,40.94
2023-04-16T12:42:11.553Z,39.50
2023-04-16T12:44:39.782Z,39.29
2023-04-16T12:47:08.407Z,39.96
2023-04-16T12:49:37.411Z,39.92
2023-04-16T12:52:06.465Z,39.43
2023-04-16T12:54:36.738Z,38.13
2023-04-16T12:57:05.192Z,37.32
2023-04-16T12:59:33.321Z,35.88
2023-04-16T13:02:02.893Z,35.39
2023-04-16T13:04:31.230Z,34.10
2023-04-16T13:06:59.905Z,33.87
2023-04-16T13:09:28.696Z,33.57
2023-04-16T13:11:56.707Z,33.82
2023-04-16T13:14:24.843Z,33.63
2023-04-16T13:16:52.811Z,36.13
2023-04-16T13:19:21.369Z,36.56
2023-04-16T13:21:49.496Z,36.52
2023-04-16T13:24:17.518Z,37.55
2023-04-16T13:26:45.526Z,37.96
2023-04-16T13:29:13.704Z,37.10
2023-04-16T13:31:41.804Z,37.47
2023-04-16T13:34:10.905Z,36.17
2023-04-16T13:36:39.069Z,36.25
2023-04-16T13:39:11.709Z,36.88
2023-04-16T13:41:40.477Z,36.99
2023-04-16T13:44:08.695Z,36.98
2023-04-16T13:46:36.805Z,35.38
2023-04-16T13:49:05.019Z,35.19
2023-04-16T13:51:33.064Z,35.96
2023-04-16T13:54:01.258Z,35.95
2023-04-16T13:56:29.244Z,37.51
2023-04-16T13:59:13.218Z,39.64
2023-04-16T14:01:49.419Z,36.65
2023-04-16T14:04:26.065Z,36.98
2023-04-16T14:06:57.143Z,37.51
2023-04-16T14:09:30.611Z,37.11
2023-04-16T14:11:59.042Z,37.75
2023-04-16T14:14:27.407Z,37.46
2023-04-16T14:16:55.951Z,37.75
2023-04-16T14:19:26.075Z,38.15
2023-04-16T14:21:57.813Z,39.25
2023-04-16T14:24:26.176Z,40.19
2023-04-16T14:26:54.441Z,40.55
2023-04-16T14:29:22.373Z,39.64
2023-04-16T14:31:50.617Z,38.70
2023-04-16T14:34:18.673Z,39.25
2023-04-16T14:36:47.075Z,39.45
2023-04-16T14:39:16.189Z,40.56
2023-04-16T14:41:44.454Z,40.32
2023-04-16T14:44:12.501Z,39.81
2023-04-16T14:46:41.213Z,38.08
2023-04-16T14:49:12.215Z,37.96
2023-04-16T14:51:41.961Z,38.80
2023-04-16T14:54:10.126Z,38.50
2023-04-16T14:56:41.363Z,38.23
2023-04-16T14:59:24.329Z,38.41
2023-04-16T15:01:59.579Z,37.76
2023-04-16T15:04:28.341Z,38.38
2023-04-16T15:06:59.571Z,38.91
2023-04-16T15:09:28.017Z,39.27
2023-04-16T15:11:57.146Z,39.37
2023-04-16T15:14:25.454Z,39.35
2023-04-16T15:16:53.947Z,39.73
2023-04-16T15:19:22.559Z,39.79
2023-04-16T15:21:50.580Z,39.93
2023-04-16T15:24:19.099Z,39.85
2023-04-16T15:26:51.478Z,40.22
2023-04-16T15:29:19.648Z,40.65
2023-04-16T15:31:47.963Z,41.02
2023-04-16T15:34:16.079Z,41.18
2023-04-16T15:36:44.269Z,41.80
2023-04-16T15:39:12.554Z,42.24
2023-04-16T15:41:53.639Z,42.84
2023-04-16T15:44:27.290Z,43.27
2023-04-16T15:46:55.365Z,43.66
2023-04-16T15:49:25.010Z,43.85
2023-04-16T15:51:53.918Z,44.42
2023-04-16T15:54:22.050Z,44.67
2023-04-16T15:56:50.568Z,45.59
2023-04-16T15:59:18.572Z,45.77
2023-04-16T16:01:46.711Z,46.05
2023-04-16T16:04:14.819Z,45.94
2023-04-16T16:06:43.186Z,45.83
2023-04-16T16:09:11.800Z,46.16
2023-04-16T16:11:40.299Z,46.58
2023-04-16T16:14:08.272Z,47.11
2023-04-16T16:16:36.957Z,47.40
2023-04-16T16:19:05.565Z,47.78
2023-04-16T16:21:33.936Z,48.25
2023-04-16T16:24:02.280Z,48.56
2023-04-16T16:26:31.714Z,48.76
2023-04-16T16:28:59.811Z,49.10
2023-04-16T16:31:30.605Z,48.73
2023-04-16T16:33:58.565Z,49.06
2023-04-16T16:36:30.206Z,48.79
2023-04-16T16:38:58.290Z,48.84
2023-04-16T16:41:26.567Z,48.61
2023-04-16T16:43:56.450Z,48.81
2023-04-16T16:46:24.772Z,48.49
2023-04-16T16:48:52.807Z,48.60
2023-04-16T16:51:21.649Z,48.58
2023-04-16T16:53:49.597Z,48.43
2023-04-16T16:56:17.613Z,48.37
2023-04-16T16:58:45.546Z,48.58
2023-04-16T17:01:13.651Z,48.73
2023-04-16T17:03:41.821Z,49.16
2023-04-16T17:06:09.933Z,49.53
2023-04-16T17:08:38.342Z,49.82
2023-04-16T17:11:06.407Z,50.21
2023-04-16T17:13:34.599Z,50.39
2023-04-16T17:16:02.564Z,50.64
2023-04-16T17:18:30.921Z,50.78
2023-04-16T17:20:58.800Z,51.12
2023-04-16T17:23:27.073Z,51.63
2023-04-16T17:25:55.012Z,51.88
2023-04-16T17:28:23.192Z,52.66
2023-04-16T17:30:52.613Z,53.20
2023-04-16T17:33:20.690Z,53.68
2023-04-16T17:35:49.217Z,54.33
2023-04-16T17:38:17.403Z,54.69
2023-04-16T17:40:45.500Z,55.29
2023-04-16T17:43:13.575Z,56.14
2023-04-16T17:45:41.661Z,56.25
2023-04-16T17:48:09.686Z,56.56
2023-04-16T17:50:39.506Z,57.07
2023-04-16T17:53:07.999Z,57.47
2023-04-16T17:55:36.096Z,57.84
2023-04-16T17:58:04.935Z,58.21
2023-04-16T18:00:33.119Z,58.44
2023-04-16T18:03:01.367Z,58.85
2023-04-16T18:05:31.006Z,59.07
2023-04-16T18:07:59.260Z,59.47
2023-04-16T18:10:29.710Z,60.00
2023-04-16T18:12:57.886Z,60.32
2023-04-16T18:15:25.907Z,60.63
2023-04-16T18:17:54.525Z,60.87
2023-04-16T18:20:22.659Z,61.25
2023-04-16T18:22:50.695Z,61.57
2023-04-16T18:25:21.546Z,64.77
2023-04-16T18:27:58.950Z,69.83
2023-04-16T18:30:26.991Z,65.80
2023-04-16T18:35:30.067Z,56.42
2023-04-16T18:37:58.012Z,56.59
2023-04-16T18:40:26.234Z,57.19
2023-04-16T18:42:54.161Z,59.02
2023-04-16T18:45:22.214Z,60.19
2023-04-16T18:47:51.056Z,60.87
2023-04-16T18:50:18.951Z,61.75
2023-04-16T18:52:47.130Z,65.11
2023-04-16T18:55:15.561Z,67.52
2023-04-16T18:57:43.695Z,62.48
2023-04-16T19:00:13.070Z,57.13
2023-04-16T19:02:41.409Z,57.34
2023-04-16T19:05:10.057Z,58.10
2023-04-16T19:07:38.738Z,59.42
2023-04-16T19:10:07.576Z,59.82
2023-04-16T19:12:35.870Z,60.73
2023-04-16T19:15:04.898Z,64.40
2023-04-16T19:17:33.050Z,67.25
2023-04-16T19:20:01.001Z,64.45
2023-04-16T19:22:29.388Z,59.83
2023-04-16T19:24:57.818Z,57.30
2023-04-16T19:27:29.212Z,57.93
2023-04-16T19:29:57.267Z,59.44
2023-04-16T19:32:25.544Z,60.11
2023-04-16T19:34:53.768Z,64.38
2023-04-16T19:37:21.965Z,67.36
2023-04-16T19:39:50.601Z,64.97
2023-04-16T19:42:18.942Z,60.68
2023-04-16T19:44:46.926Z,57.48
2023-04-16T19:47:15.043Z,58.49
2023-04-16T19:49:44.287Z,58.64
2023-04-16T19:52:21.209Z,57.95
2023-04-16T19:54:51.783Z,57.37
2023-04-16T19:57:19.782Z,58.56
2023-04-16T19:59:47.844Z,61.35
2023-04-16T20:02:15.763Z,63.67
2023-04-16T20:04:44.908Z,66.02
2023-04-16T20:07:14.843Z,61.83
2023-04-16T20:09:43.328Z,56.35
2023-04-16T20:12:11.763Z,54.87
2023-04-16T20:14:40.548Z,55.77
2023-04-16T20:17:10.331Z,57.02
2023-04-16T20:19:38.633Z,58.18
2023-04-16T20:22:06.753Z,59.48
2023-04-16T20:24:34.837Z,60.79
2023-04-16T20:27:03.264Z,65.45
2023-04-16T20:29:31.332Z,67.39
2023-04-16T20:31:59.599Z,63.45
2023-04-16T20:34:28.592Z,58.12
2023-04-16T20:36:58.128Z,56.71
2023-04-16T20:39:27.388Z,57.70
2023-04-16T20:41:58.250Z,58.85
2023-04-16T20:44:33.343Z,59.87
2023-04-16T20:47:01.417Z,64.50
2023-04-16T20:49:30.341Z,66.90
2023-04-16T20:51:58.370Z,64.05
2023-04-16T20:54:27.254Z,58.90
2023-04-16T20:56:56.199Z,56.45
2023-04-16T20:59:25.047Z,57.06
2023-04-16T21:01:52.935Z,58.05
2023-04-16T21:04:21.444Z,59.76
2023-04-16T21:06:53.605Z,63.23
2023-04-16T21:09:21.972Z,64.72
2023-04-16T21:11:49.998Z,58.57
2023-04-16T21:14:19.202Z,59.49
2023-04-16T21:16:47.148Z,62.34
2023-04-16T21:19:15.090Z,63.66
2023-04-16T21:21:43.049Z,61.32
2023-04-16T21:24:10.963Z,58.56
2023-04-16T21:26:38.851Z,60.23
2023-04-16T21:29:06.736Z,62.72
2023-04-16T21:31:34.844Z,62.94
2023-04-16T21:34:02.829Z,59.95
2023-04-16T21:36:33.233Z,59.04
2023-04-16T21:39:01.667Z,61.95
2023-04-16T21:41:29.720Z,63.18
2023-04-16T21:43:57.637Z,60.48
2023-04-16T21:46:26.432Z,58.46
2023-04-16T21:48:54.396Z,59.48
2023-04-16T21:51:29.324Z,61.36
2023-04-16T21:53:57.675Z,64.80
2023-04-16T21:56:26.223Z,62.85
2023-04-16T21:58:54.230Z,61.26
2023-04-16T22:01:22.228Z,57.46
2023-04-16T22:03:52.216Z,59.13
2023-04-16T22:06:20.688Z,61.16
2023-04-16T22:08:50.269Z,65.04
2023-04-16T22:11:18.403Z,64.51
2023-04-16T22:13:47.862Z,61.90
2023-04-16T22:16:16.386Z,58.27
2023-04-16T22:18:45.447Z,59.86
2023-04-16T22:21:13.773Z,61.57
2023-04-16T22:23:41.875Z,65.45
2023-04-16T22:26:10.196Z,64.17
2023-04-16T22:28:38.124Z,61.62
2023-04-16T22:31:06.020Z,58.99
2023-04-16T22:33:33.908Z,60.70
2023-04-16T22:36:01.825Z,63.50
2023-04-16T22:38:29.733Z,62.84
2023-04-16T22:40:57.630Z,61.74
2023-04-16T22:43:25.501Z,59.07
2023-04-16T22:46:04.770Z,58.70
2023-04-16T22:48:36.412Z,61.79
2023-04-16T22:51:07.230Z,66.43
2023-04-16T22:53:35.371Z,63.60
2023-04-16T22:56:03.270Z,60.47
2023-04-16T22:58:31.184Z,60.45
2023-04-16T23:00:59.634Z,58.11
2023-04-16T23:03:29.354Z,58.64
2023-04-16T23:05:57.810Z,63.23
2023-04-16T23:08:25.719Z,64.43
2023-04-16T23:10:53.608Z,62.74
2023-04-16T23:13:21.547Z,60.39
2023-04-16T23:15:52.729Z,57.77
2023-04-16T23:18:23.704Z,60.72
2023-04-16T23:20:52.782Z,64.44
2023-04-16T23:23:21.113Z,63.49
2023-04-16T23:25:53.483Z,60.75
2023-04-16T23:28:22.147Z,59.89
2023-04-16T23:30:53.317Z,57.80
2023-04-16T23:33:21.860Z,58.59
2023-04-16T23:35:50.054Z,60.62
2023-04-16T23:38:18.037Z,65.64
2023-04-16T23:40:46.121Z,65.98
2023-04-16T23:43:18.007Z,63.06
2023-04-16T23:45:46.012Z,60.50
2023-04-16T23:48:13.958Z,57.99
2023-04-16T23:50:41.840Z,58.10
2023-04-16T23:53:09.762Z,59.97
2023-04-16T23:55:37.879Z,64.73
2023-04-16T23:58:07.154Z,65.53
